Time;durP1;ratioP1;P1;durP2;ratioP2;P2;SDS_P1;SDS_P2;PMS_P1;PMS_P2;Temp;Humidity;BMP_temperature;BMP_pressure;BME280_temperature;BME280_humidity;BME280_pressure;Samples;Min_cycle;Max_cycle;Signal;HPM_P1;HPM_P2
2021/10/07 00:00:23;;;;;;;2.12;0.98;;;10.70;99.90;;;;;;1940594;72;21540;-76
2021/10/07 00:02:49;;;;;;;2.00;0.88;;;10.80;99.90;;;;;;1948945;72;21647;-75
2021/10/07 00:05:15;;;;;;;1.47;0.95;;;10.90;99.90;;;;;;1952929;73;21128;-75
2021/10/07 00:07:41;;;;;;;1.37;0.82;;;10.90;99.90;;;;;;1952654;73;21124;-76
2021/10/07 00:10:07;;;;;;;4.33;0.98;;;10.90;99.90;;;;;;1951193;72;21035;-75
2021/10/07 00:12:34;;;;;;;0.90;0.90;;;10.80;99.90;;;;;;1954236;71;21066;-76
2021/10/07 00:15:00;;;;;;;1.35;0.80;;;10.90;99.90;;;;;;1949255;72;21133;-75
2021/10/07 00:17:26;;;;;;;1.98;1.07;;;10.70;99.90;;;;;;1950556;72;21066;-75
2021/10/07 00:19:52;;;;;;;3.98;1.00;;;10.80;99.90;;;;;;1944286;73;21039;-76
2021/10/07 00:22:18;;;;;;;2.60;0.90;;;10.80;99.90;;;;;;1949365;72;21059;-75
2021/10/07 00:24:44;;;;;;;2.27;0.82;;;10.90;99.90;;;;;;1947124;72;21133;-75
2021/10/07 00:27:10;;;;;;;1.72;0.90;;;10.90;99.90;;;;;;1949843;72;21067;-74
2021/10/07 00:32:08;;;;;;;1.80;0.90;;;10.70;99.90;;;;;;1946600;73;21096;-75
2021/10/07 00:39:31;;;;;;;4.03;1.00;;;10.80;99.90;;;;;;1954431;73;21095;-74
2021/10/07 00:41:57;;;;;;;0.72;0.72;;;10.80;99.90;;;;;;1944834;73;21062;-76
2021/10/07 00:44:23;;;;;;;2.10;0.80;;;10.80;99.90;;;;;;1955439;72;21603;-75
2021/10/07 00:46:50;;;;;;;1.07;0.78;;;10.90;99.90;;;;;;1947212;72;21067;-75
2021/10/07 00:49:16;;;;;;;2.27;0.90;;;10.90;99.90;;;;;;1951549;72;21147;-75
2021/10/07 00:51:42;;;;;;;1.67;0.70;;;10.90;99.90;;;;;;1954297;73;21035;-75
2021/10/07 00:54:08;;;;;;;4.42;0.98;;;10.80;99.90;;;;;;1944743;72;21483;-75
2021/10/07 00:56:35;;;;;;;3.95;0.98;;;10.80;99.90;;;;;;1955955;72;21726;-75
2021/10/07 00:59:01;;;;;;;4.85;1.10;;;10.80;99.90;;;;;;1947698;72;21451;-75
2021/10/07 01:01:28;;;;;;;1.98;0.82;;;10.70;99.90;;;;;;1948923;73;21067;-74
2021/10/07 01:03:54;;;;;;;4.35;1.05;;;10.60;99.90;;;;;;1947023;72;21063;-76
2021/10/07 01:06:20;;;;;;;2.05;1.00;;;10.60;99.90;;;;;;1942062;72;21135;-75
2021/10/07 01:08:46;;;;;;;4.25;1.20;;;10.60;99.90;;;;;;1950999;72;21240;-75
2021/10/07 01:11:13;;;;;;;1.15;0.80;;;10.70;99.90;;;;;;1959141;73;21065;-76
2021/10/07 01:13:40;;;;;;;1.65;0.75;;;10.70;99.90;;;;;;1946816;72;21149;-74
2021/10/07 01:16:06;;;;;;;1.77;0.80;;;10.70;99.90;;;;;;1933921;73;21052;-75
2021/10/07 01:18:32;;;;;;;3.90;1.32;;;10.70;99.90;;;;;;1938158;73;21470;-74
2021/10/07 01:20:58;;;;;;;2.20;0.90;;;10.70;99.90;;;;;;1941828;72;21478;-74
2021/10/07 01:23:24;;;;;;;2.37;1.10;;;10.70;99.90;;;;;;1940346;72;21459;-73
2021/10/07 01:25:50;;;;;;;1.15;0.85;;;10.60;99.90;;;;;;1945528;72;21531;-74
2021/10/07 01:28:16;;;;;;;4.83;1.30;;;10.60;99.90;;;;;;1919756;72;21458;-73
2021/10/07 01:30:42;;;;;;;4.20;0.90;;;10.60;99.90;;;;;;1943055;73;21125;-73
2021/10/07 01:33:09;;;;;;;6.30;1.05;;;10.60;99.90;;;;;;1933872;73;21360;-74
2021/10/07 01:35:35;;;;;;;2.10;1.27;;;10.60;99.90;;;;;;1939688;73;21063;-74
2021/10/07 01:38:01;;;;;;;1.52;1.15;;;10.60;99.90;;;;;;1947203;72;21075;-75
2021/10/07 01:40:27;;;;;;;11.20;1.25;;;10.60;99.90;;;;;;1941581;73;21059;-74
2021/10/07 01:42:53;;;;;;;2.37;1.20;;;10.60;99.90;;;;;;1915044;73;21043;-73
2021/10/07 01:45:20;;;;;;;3.20;1.10;;;10.60;99.90;;;;;;1948517;72;21105;-74
2021/10/07 01:47:46;;;;;;;6.22;1.45;;;10.50;99.90;;;;;;1944697;73;21083;-75
2021/10/07 01:50:12;;;;;;;3.17;1.07;;;10.50;99.90;;;;;;1935445;72;21141;-75
2021/10/07 01:52:38;;;;;;;3.42;1.12;;;10.50;99.90;;;;;;1942343;72;21459;-74
2021/10/07 01:55:04;;;;;;;2.02;1.10;;;10.50;99.90;;;;;;1910108;73;21052;-74
2021/10/07 01:57:30;;;;;;;0.88;0.80;;;10.50;99.90;;;;;;1939623;72;21435;-75
2021/10/07 01:59:56;;;;;;;1.62;1.00;;;10.50;99.90;;;;;;1929670;72;21470;-75
2021/10/07 02:02:23;;;;;;;2.22;1.20;;;10.50;99.90;;;;;;1935432;73;21486;-75
2021/10/07 02:04:49;;;;;;;2.72;1.22;;;10.60;99.90;;;;;;1918516;73;21043;-75
2021/10/07 02:07:15;;;;;;;2.98;0.98;;;10.60;99.90;;;;;;1918193;73;21056;-76
2021/10/07 02:09:41;;;;;;;1.72;1.45;;;10.60;99.90;;;;;;1918243;72;21309;-75
2021/10/07 02:12:07;;;;;;;3.17;1.45;;;10.50;99.90;;;;;;1945761;72;21058;-75
2021/10/07 02:14:33;;;;;;;5.55;1.60;;;10.50;99.90;;;;;;1927058;73;21052;-75
2021/10/07 02:16:59;;;;;;;2.75;1.00;;;10.50;99.90;;;;;;1921488;73;21136;-75
2021/10/07 02:19:25;;;;;;;5.78;1.25;;;10.50;99.90;;;;;;1935781;72;21055;-75
2021/10/07 02:21:52;;;;;;;4.30;1.70;;;10.50;99.90;;;;;;1945372;72;21063;-75
2021/10/07 02:24:18;;;;;;;1.98;1.20;;;10.40;99.90;;;;;;1937648;71;21117;-75
2021/10/07 02:26:44;;;;;;;1.77;1.25;;;10.40;99.90;;;;;;1937247;71;21121;-75
2021/10/07 02:29:10;;;;;;;5.80;1.60;;;10.50;99.90;;;;;;1936737;72;21132;-75
2021/10/07 02:31:36;;;;;;;1.60;1.07;;;10.50;99.90;;;;;;1936323;71;21133;-75
2021/10/07 02:34:02;;;;;;;2.70;1.10;;;10.60;99.90;;;;;;1936633;71;21548;-75
2021/10/07 02:36:28;;;;;;;3.83;1.67;;;10.50;99.90;;;;;;1923045;72;21227;-75
2021/10/07 02:38:54;;;;;;;7.83;1.30;;;10.50;99.90;;;;;;1935069;73;21439;-76
2021/10/07 02:41:21;;;;;;;3.98;1.70;;;10.50;99.90;;;;;;1934345;73;21055;-75
2021/10/07 02:43:47;;;;;;;2.30;1.15;;;10.50;99.90;;;;;;1933816;72;21058;-75
2021/10/07 02:46:13;;;;;;;3.40;1.45;;;10.60;99.90;;;;;;1924180;71;21029;-76
2021/10/07 02:48:39;;;;;;;2.15;1.30;;;10.60;99.90;;;;;;1936539;73;21125;-76
2021/10/07 02:51:05;;;;;;;4.05;1.30;;;10.50;99.90;;;;;;1943238;73;21071;-75
2021/10/07 02:53:32;;;;;;;5.62;1.60;;;10.50;99.90;;;;;;1918429;72;21058;-76
2021/10/07 02:55:59;;;;;;;2.40;1.00;;;10.50;99.90;;;;;;1944662;72;21060;-75
2021/10/07 02:58:25;;;;;;;4.10;1.25;;;10.60;99.90;;;;;;1943948;72;21469;-75
2021/10/07 03:00:51;;;;;;;4.05;1.02;;;10.60;99.90;;;;;;1937059;72;21491;-75
2021/10/07 03:03:17;;;;;;;1.60;1.00;;;10.60;99.90;;;;;;1941346;72;21515;-75
2021/10/07 03:05:43;;;;;;;3.77;1.20;;;10.60;99.90;;;;;;1932182;72;21854;-75
2021/10/07 03:08:09;;;;;;;1.65;0.90;;;10.60;99.90;;;;;;1911341;72;21576;-74
2021/10/07 03:10:35;;;;;;;2.72;1.45;;;10.60;99.90;;;;;;1942072;73;21063;-75
2021/10/07 03:13:01;;;;;;;1.57;1.00;;;10.60;99.90;;;;;;1941474;72;21068;-75
2021/10/07 03:15:28;;;;;;;1.65;1.07;;;10.60;99.90;;;;;;1928830;72;21044;-75
2021/10/07 03:17:54;;;;;;;2.10;1.17;;;10.60;99.90;;;;;;1930782;72;21059;-75
2021/10/07 03:20:20;;;;;;;2.70;1.10;;;10.60;99.90;;;;;;1911716;72;21056;-74
2021/10/07 03:22:46;;;;;;;2.17;0.93;;;10.80;99.90;;;;;;1943726;72;21181;-75
2021/10/07 03:25:12;;;;;;;3.58;1.15;;;10.70;99.90;;;;;;1952672;72;21068;-74
2021/10/07 03:27:38;;;;;;;1.27;1.02;;;10.70;99.90;;;;;;1931599;72;21070;-74
2021/10/07 03:30:04;;;;;;;2.37;1.00;;;10.70;99.90;;;;;;1930279;72;21058;-75
2021/10/07 03:32:30;;;;;;;2.95;1.10;;;10.70;99.90;;;;;;1924262;72;21201;-75
2021/10/07 03:34:57;;;;;;;2.50;1.37;;;10.70;99.90;;;;;;1932295;73;21183;-75
2021/10/07 03:37:23;;;;;;;4.33;1.07;;;10.70;99.90;;;;;;1918405;72;21451;-75
2021/10/07 03:39:49;;;;;;;1.98;1.05;;;10.70;99.90;;;;;;1924003;73;21483;-75
2021/10/07 03:42:15;;;;;;;1.75;1.20;;;10.80;99.90;;;;;;1940525;72;21491;-75
2021/10/07 03:44:41;;;;;;;21.23;1.30;;;10.80;99.90;;;;;;1928877;72;21495;-75
2021/10/07 03:47:07;;;;;;;2.33;1.32;;;10.70;99.90;;;;;;1941076;73;21051;-74
2021/10/07 03:49:33;;;;;;;2.92;1.02;;;10.60;99.90;;;;;;1919268;73;21196;-75
2021/10/07 03:52:00;;;;;;;1.62;0.95;;;10.60;99.90;;;;;;1930196;73;21055;-75
2021/10/07 03:54:26;;;;;;;2.27;1.25;;;10.70;99.90;;;;;;1942723;73;21067;-75
2021/10/07 03:56:52;;;;;;;1.80;0.95;;;10.70;99.90;;;;;;1915072;72;21035;-74
2021/10/07 03:59:18;;;;;;;2.77;1.25;;;10.80;99.90;;;;;;1934049;72;21217;-75
2021/10/07 04:01:44;;;;;;;2.60;1.17;;;10.70;99.90;;;;;;1920963;72;21067;-75
2021/10/07 04:04:10;;;;;;;2.27;1.17;;;10.70;99.90;;;;;;1923554;73;21063;-75
2021/10/07 04:06:36;;;;;;;4.80;1.62;;;10.70;99.90;;;;;;1916268;73;21039;-75
2021/10/07 04:09:03;;;;;;;6.17;1.52;;;10.60;99.90;;;;;;1920742;72;21058;-75
2021/10/07 04:11:29;;;;;;;1.32;1.05;;;10.50;99.90;;;;;;1938413;72;21067;-75
2021/10/07 04:13:55;;;;;;;4.28;1.55;;;10.60;99.90;;;;;;1944852;73;21074;-75
2021/10/07 04:16:21;;;;;;;2.67;1.00;;;10.60;99.90;;;;;;1928486;73;21063;-75
2021/10/07 04:18:47;;;;;;;1.92;1.27;;;10.60;99.90;;;;;;1949371;72;21063;-76
2021/10/07 04:21:13;;;;;;;3.58;1.62;;;10.50;99.90;;;;;;1944353;72;21065;-75
2021/10/07 04:23:40;;;;;;;1.98;1.10;;;10.60;99.90;;;;;;1941689;72;21499;-74
2021/10/07 04:26:06;;;;;;;4.05;1.32;;;10.60;99.90;;;;;;1935420;73;21482;-75
2021/10/07 04:28:32;;;;;;;3.83;1.20;;;10.70;99.90;;;;;;1912719;73;21135;-73
2021/10/07 04:30:58;;;;;;;3.90;1.62;;;10.70;99.90;;;;;;1920602;73;21145;-76
2021/10/07 04:33:24;;;;;;;2.60;1.92;;;10.70;99.90;;;;;;1927019;72;21087;-77
2021/10/07 04:35:51;;;;;;;4.12;1.90;;;10.60;99.90;;;;;;1939983;72;21063;-76
2021/10/07 04:38:17;;;;;;;6.65;2.40;;;10.60;99.90;;;;;;1938684;72;21059;-81
2021/10/07 04:40:43;;;;;;;5.28;2.08;;;10.70;99.90;;;;;;1933711;73;21604;-81
2021/10/07 04:43:09;;;;;;;4.55;2.15;;;10.60;99.90;;;;;;1921718;72;21473;-80
2021/10/07 04:45:35;;;;;;;2.35;1.75;;;10.60;99.90;;;;;;1932774;73;21043;-80
2021/10/07 04:48:01;;;;;;;2.37;1.62;;;10.70;99.90;;;;;;1938349;73;21148;-79
2021/10/07 04:50:28;;;;;;;2.85;1.80;;;10.70;99.90;;;;;;1941691;72;21185;-78
2021/10/07 04:52:54;;;;;;;4.72;2.05;;;10.70;99.90;;;;;;1940732;72;21074;-79
2021/10/07 04:55:20;;;;;;;4.42;2.05;;;10.70;99.90;;;;;;1946595;72;21113;-79
2021/10/07 04:57:46;;;;;;;3.40;1.98;;;10.70;99.90;;;;;;1929157;71;21128;-79
2021/10/07 05:00:12;;;;;;;2.58;1.65;;;10.70;99.90;;;;;;1946405;71;21124;-79
2021/10/07 05:02:38;;;;;;;3.08;1.67;;;10.60;99.90;;;;;;1920411;72;21067;-80
2021/10/07 05:05:04;;;;;;;5.22;2.20;;;10.70;99.90;;;;;;1922845;72;21035;-79
2021/10/07 05:07:32;;;;;;;4.83;1.80;;;10.70;99.90;;;;;;1944831;72;21064;-79
2021/10/07 05:09:58;;;;;;;2.45;1.35;;;10.70;99.90;;;;;;1924782;73;21058;-80
2021/10/07 05:12:24;;;;;;;3.47;1.42;;;10.70;99.90;;;;;;1943723;73;21062;-81
2021/10/07 05:14:50;;;;;;;10.58;1.67;;;10.80;99.90;;;;;;1936755;72;21132;-79
2021/10/07 05:17:16;;;;;;;7.30;2.05;;;10.70;99.90;;;;;;1930770;71;21058;-78
2021/10/07 05:19:42;;;;;;;4.50;1.70;;;10.70;99.90;;;;;;1933299;72;21137;-79
2021/10/07 05:22:09;;;;;;;3.40;1.60;;;10.70;99.90;;;;;;1930288;73;21067;-80
2021/10/07 05:24:35;;;;;;;4.20;1.52;;;10.70;99.90;;;;;;1927486;72;21066;-80
2021/10/07 05:27:01;;;;;;;2.92;1.32;;;10.70;99.90;;;;;;1936445;72;21067;-79
2021/10/07 05:29:27;;;;;;;4.53;1.80;;;10.70;99.90;;;;;;1931194;72;21063;-80
2021/10/07 05:31:53;;;;;;;7.03;2.12;;;10.70;99.90;;;;;;1938829;73;21066;-79
2021/10/07 05:34:19;;;;;;;4.08;2.42;;;10.60;99.90;;;;;;1934830;73;21063;-81
2021/10/07 05:36:45;;;;;;;2.47;1.57;;;10.70;99.90;;;;;;1943434;72;21309;-84
2021/10/07 05:39:12;;;;;;;2.25;1.40;;;10.70;99.90;;;;;;1950014;72;21662;-80
2021/10/07 05:41:39;;;;;;;3.25;1.47;;;10.70;99.90;;;;;;1916784;72;21161;-79
2021/10/07 05:44:09;;;;;;;1.90;1.37;;;10.90;99.90;;;;;;1924959;72;21189;-76
2021/10/07 05:46:33;;;;;;;7.00;2.08;;;10.90;99.90;;;;;;1928995;72;21179;-78
2021/10/07 05:48:59;;;;;;;4.30;1.85;;;10.80;99.90;;;;;;1922469;72;21067;-83
2021/10/07 05:51:26;;;;;;;5.55;3.37;;;10.70;99.90;;;;;;1944648;72;21135;-83
2021/10/07 05:53:52;;;;;;;3.87;2.55;;;10.80;99.90;;;;;;1928170;72;21149;-80
2021/10/07 05:56:18;;;;;;;7.42;2.35;;;10.80;99.90;;;;;;1912105;72;21067;-83
2021/10/07 05:58:45;;;;;;;8.65;2.40;;;10.90;99.90;;;;;;1928946;72;21058;-86
2021/10/07 06:01:11;;;;;;;8.40;2.40;;;10.90;99.90;;;;;;1937442;72;21079;-83
2021/10/07 06:03:37;;;;;;;4.67;1.95;;;10.80;99.90;;;;;;1924018;72;21136;-82
2021/10/07 06:06:05;;;;;;;3.35;2.00;;;10.90;99.90;;;;;;1932630;72;21078;-81
2021/10/07 06:08:31;;;;;;;4.28;1.50;;;10.80;99.90;;;;;;1924372;73;21128;-82
2021/10/07 06:10:57;;;;;;;1.32;1.17;;;10.90;99.90;;;;;;1938660;72;21126;-80
2021/10/07 06:13:23;;;;;;;1.80;1.57;;;10.90;99.90;;;;;;1927444;73;21141;-81
2021/10/07 06:15:49;;;;;;;2.85;1.65;;;11.00;99.90;;;;;;1922085;71;21058;-81
2021/10/07 06:18:15;;;;;;;3.22;1.65;;;11.10;99.90;;;;;;1918454;73;21467;-81
2021/10/07 06:20:48;;;;;;;7.97;1.72;;;11.10;99.90;;;;;;1936398;72;21058;-81
2021/10/07 06:23:11;;;;;;;4.85;2.87;;;11.00;99.90;;;;;;1941482;72;21137;-79
2021/10/07 06:25:37;;;;;;;5.15;2.17;;;11.00;99.90;;;;;;1939724;72;21076;-79
2021/10/07 06:28:03;;;;;;;6.22;1.75;;;11.10;99.90;;;;;;1930039;73;21144;-81
2021/10/07 06:30:29;;;;;;;2.45;1.30;;;11.20;99.90;;;;;;1938363;72;21039;-81
2021/10/07 06:32:57;;;;;;;2.58;1.30;;;11.30;99.90;;;;;;1944409;73;21060;-80
2021/10/07 06:35:25;;;;;;;5.35;1.77;;;11.30;99.90;;;;;;1941034;72;21067;-79
2021/10/07 06:37:52;;;;;;;2.10;1.70;;;11.30;99.90;;;;;;1920854;72;21071;-81
2021/10/07 06:40:18;;;;;;;2.92;1.72;;;11.20;99.90;;;;;;1937446;72;21066;-81
2021/10/07 06:42:46;;;;;;;7.15;1.72;;;11.20;99.90;;;;;;1933374;72;21091;-80
2021/10/07 06:45:14;;;;;;;5.67;2.65;;;11.30;99.90;;;;;;1923109;72;21691;-80
2021/10/07 06:47:40;;;;;;;10.43;2.15;;;11.40;99.90;;;;;;1947716;72;21196;-81
2021/10/07 06:50:06;;;;;;;3.62;2.22;;;11.40;99.90;;;;;;1945401;72;21102;-77
2021/10/07 06:52:37;;;;;;;3.30;2.02;;;11.40;99.90;;;;;;1934299;73;21071;-80
2021/10/07 06:55:02;;;;;;;;;;;11.50;99.90;;;;;;1909757;72;21062;-79
2021/10/07 06:57:29;;;;;;;3.22;1.70;;;11.70;99.90;;;;;;1917377;73;20120;-80
2021/10/07 06:59:55;;;;;;;4.30;1.30;;;11.80;99.90;;;;;;1937861;73;21066;-80
2021/10/07 07:02:23;;;;;;;4.22;1.47;;;11.70;99.90;;;;;;1930232;71;21136;-81
2021/10/07 07:04:51;;;;;;;2.55;1.60;;;11.80;99.90;;;;;;1924812;71;21063;-79
2021/10/07 07:07:18;;;;;;;2.72;1.50;;;11.90;99.90;;;;;;1942133;73;21072;-80
2021/10/07 07:09:45;;;;;;;4.12;1.62;;;11.80;99.90;;;;;;1938345;71;21134;-79
2021/10/07 07:12:11;;;;;;;6.08;2.65;;;11.70;99.90;;;;;;1935606;71;21102;-81
2021/10/07 07:14:38;;;;;;;5.03;1.67;;;11.80;99.90;;;;;;1929442;72;21482;-78
2021/10/07 07:17:05;;;;;;;6.05;1.60;;;11.80;99.90;;;;;;1943458;72;21509;-79
2021/10/07 07:19:31;;;;;;;4.35;1.77;;;11.80;99.90;;;;;;1940447;72;21459;-78
2021/10/07 07:21:57;;;;;;;2.75;1.52;;;11.70;99.90;;;;;;1944243;71;21415;-78
2021/10/07 07:24:23;;;;;;;6.15;1.80;;;11.80;99.90;;;;;;1944234;72;21470;-79
2021/10/07 07:26:49;;;;;;;3.00;1.72;;;12.00;99.90;;;;;;1918543;73;21116;-79
2021/10/07 07:29:15;;;;;;;5.03;2.20;;;12.20;99.90;;;;;;1917622;72;21213;-79
2021/10/07 07:31:42;;;;;;;3.95;1.92;;;12.10;99.90;;;;;;1920151;72;21051;-79
2021/10/07 07:34:09;;;;;;;4.90;1.70;;;12.10;99.90;;;;;;1929003;73;21074;-79
2021/10/07 07:36:35;;;;;;;4.65;2.30;;;12.10;99.90;;;;;;1942302;72;21271;-79
2021/10/07 07:39:01;;;;;;;4.35;1.80;;;12.00;99.90;;;;;;1943753;72;21207;-79
2021/10/07 07:41:30;;;;;;;4.35;1.80;;;12.10;99.90;;;;;;1931605;72;21044;-79
2021/10/07 07:43:56;;;;;;;9.10;5.35;;;12.20;99.90;;;;;;1930188;71;21262;-80
2021/10/07 07:46:22;;;;;;;5.78;2.30;;;12.20;99.90;;;;;;1931823;72;21062;-79
2021/10/07 07:48:48;;;;;;;3.52;1.90;;;12.20;99.90;;;;;;1923711;73;21063;-80
2021/10/07 07:51:15;;;;;;;3.02;2.15;;;12.30;99.90;;;;;;1943536;73;21044;-80
2021/10/07 07:53:41;;;;;;;3.75;2.45;;;12.50;99.90;;;;;;1941328;72;21043;-80
2021/10/07 07:56:07;;;;;;;3.52;1.90;;;12.80;99.90;;;;;;1935691;72;21132;-80
2021/10/07 07:58:33;;;;;;;4.37;1.90;;;13.00;99.90;;;;;;1938257;72;21140;-79
2021/10/07 08:01:00;;;;;;;12.78;2.58;;;13.00;99.90;;;;;;1943014;72;21552;-80
2021/10/07 08:03:27;;;;;;;4.75;2.37;;;13.00;99.90;;;;;;1939565;72;21455;-78
2021/10/07 08:05:53;;;;;;;6.58;2.08;;;12.70;99.90;;;;;;1927409;72;21128;-80
2021/10/07 08:08:20;;;;;;;4.95;2.30;;;12.70;99.90;;;;;;1919066;72;21059;-80
2021/10/07 08:10:53;;;;;;;3.27;2.20;;;12.80;99.90;;;;;;1940471;72;21133;-80
2021/10/07 08:13:19;;;;;;;3.80;2.25;;;13.00;99.90;;;;;;1916204;72;21116;-82
2021/10/07 08:15:45;;;;;;;5.30;3.00;;;13.30;99.90;;;;;;1944488;72;21063;-81
2021/10/07 08:18:13;;;;;;;4.58;2.72;;;13.70;99.90;;;;;;1940955;72;21204;-82
2021/10/07 08:20:40;;;;;;;3.70;2.33;;;13.70;99.90;;;;;;1940647;73;21095;-82
2021/10/07 08:23:07;;;;;;;4.78;2.40;;;13.40;99.90;;;;;;1937969;73;21480;-81
2021/10/07 08:25:35;;;;;;;4.60;2.65;;;13.20;99.90;;;;;;1931222;72;21107;-81
2021/10/07 08:28:01;;;;;;;5.05;2.80;;;13.30;99.90;;;;;;1921285;73;21058;-80
2021/10/07 08:30:27;;;;;;;5.10;2.35;;;13.30;99.90;;;;;;1922658;72;21063;-80
2021/10/07 08:32:55;;;;;;;17.25;7.03;;;13.30;99.90;;;;;;1933274;72;21132;-81
2021/10/07 08:35:21;;;;;;;4.62;2.75;;;13.30;99.90;;;;;;1937166;71;21047;-80
2021/10/07 08:37:47;;;;;;;4.72;2.77;;;13.60;99.90;;;;;;1941874;72;21486;-81
2021/10/07 08:40:15;;;;;;;5.62;2.72;;;13.40;99.90;;;;;;1928346;71;21133;-79
2021/10/07 08:42:41;;;;;;;10.38;3.40;;;13.40;99.90;;;;;;1930449;72;21128;-78
2021/10/07 08:45:07;;;;;;;6.80;3.27;;;12.90;99.90;;;;;;1915130;72;21129;-78
2021/10/07 08:47:33;;;;;;;6.78;3.17;;;12.70;99.90;;;;;;1932898;72;21193;-79
2021/10/07 08:49:59;;;;;;;14.78;3.27;;;12.90;99.90;;;;;;1945110;72;21056;-79
2021/10/07 08:52:28;;;;;;;9.10;3.47;;;13.10;99.90;;;;;;1919990;73;21078;-79
2021/10/07 08:54:54;;;;;;;5.03;2.90;;;13.20;99.90;;;;;;1924750;72;21066;-79
2021/10/07 08:57:21;;;;;;;4.78;3.22;;;13.00;99.90;;;;;;1938490;72;21075;-79
2021/10/07 08:59:47;;;;;;;4.92;3.10;;;13.10;99.90;;;;;;1926126;73;22539;-79
2021/10/07 09:02:13;;;;;;;4.90;2.92;;;13.10;99.90;;;;;;1944586;72;21126;-80
2021/10/07 09:04:39;;;;;;;3.95;3.08;;;13.20;99.90;;;;;;1940254;71;21409;-80
2021/10/07 09:07:07;;;;;;;12.25;3.40;;;13.10;99.90;;;;;;1941908;72;21474;-79
2021/10/07 09:09:33;;;;;;;41.88;3.52;;;12.80;99.90;;;;;;1930275;73;21104;-79
2021/10/07 09:11:59;;;;;;;6.08;3.05;;;13.00;99.90;;;;;;1949315;72;21258;-79
2021/10/07 09:14:27;;;;;;;6.92;2.87;;;13.20;99.90;;;;;;1944196;72;21079;-80
2021/10/07 09:16:54;;;;;;;4.97;3.20;;;13.20;99.90;;;;;;1943007;72;21059;-79
2021/10/07 09:19:20;;;;;;;4.00;2.62;;;13.20;99.90;;;;;;1934625;72;21124;-80
2021/10/07 09:21:46;;;;;;;4.05;2.92;;;13.40;99.90;;;;;;1938744;72;21067;-82
2021/10/07 09:24:12;;;;;;;5.25;2.75;;;13.50;99.90;;;;;;1930819;72;21459;-79
2021/10/07 09:26:40;;;;;;;5.28;2.83;;;13.40;99.90;;;;;;1945836;72;21486;-79
2021/10/07 09:29:06;;;;;;;4.50;2.58;;;13.40;99.90;;;;;;1931822;73;21141;-78
2021/10/07 09:31:32;;;;;;;4.10;2.77;;;13.60;99.90;;;;;;1921374;72;21063;-78
2021/10/07 09:33:59;;;;;;;4.03;2.70;;;13.70;99.90;;;;;;1913394;72;21113;-80
2021/10/07 09:36:25;;;;;;;4.28;2.75;;;13.90;99.90;;;;;;1927822;72;21078;-79
2021/10/07 09:38:51;;;;;;;7.15;3.02;;;14.00;99.90;;;;;;1941224;72;21075;-82
2021/10/07 09:41:17;;;;;;;5.28;3.40;;;13.90;99.90;;;;;;1936277;72;21583;-83
2021/10/07 09:43:43;;;;;;;5.60;2.92;;;13.90;99.90;;;;;;1927351;71;22421;-81
2021/10/07 09:46:09;;;;;;;4.90;3.00;;;13.80;99.90;;;;;;1938603;72;21600;-81
2021/10/07 09:48:35;;;;;;;5.22;3.30;;;13.90;99.90;;;;;;1940663;71;21449;-82
2021/10/07 09:51:01;;;;;;;4.97;3.47;;;13.90;99.90;;;;;;1933621;72;21450;-80
2021/10/07 09:53:27;;;;;;;13.90;3.50;;;13.90;99.90;;;;;;1931245;72;21051;-81
2021/10/07 09:55:54;;;;;;;4.95;3.08;;;13.80;99.90;;;;;;1935766;71;21044;-83
2021/10/07 09:58:20;;;;;;;4.05;3.25;;;13.80;99.90;;;;;;1942804;71;21102;-81
2021/10/07 10:00:46;;;;;;;5.42;3.40;;;13.70;99.90;;;;;;1942924;72;21212;-82
2021/10/07 10:03:12;;;;;;;4.85;3.20;;;13.70;99.90;;;;;;1947215;72;21129;-78
2021/10/07 10:05:38;;;;;;;5.17;3.25;;;13.80;99.90;;;;;;1933169;72;21458;-81
2021/10/07 10:08:04;;;;;;;7.78;3.55;;;13.80;99.90;;;;;;1934704;73;21485;-81
2021/10/07 10:10:31;;;;;;;3.20;2.90;;;13.80;99.90;;;;;;1936596;72;21412;-81
2021/10/07 10:12:57;;;;;;;5.75;3.00;;;14.00;99.90;;;;;;1931168;73;21423;-82
2021/10/07 10:15:23;;;;;;;4.78;3.00;;;14.20;99.90;;;;;;1931103;72;21550;-83
2021/10/07 10:17:51;;;;;;;4.62;2.75;;;14.30;99.90;;;;;;1927274;72;21123;-80
2021/10/07 10:20:17;;;;;;;6.37;3.08;;;14.20;99.90;;;;;;1936368;72;21096;-81
2021/10/07 10:22:43;;;;;;;4.65;2.55;;;14.30;99.90;;;;;;1921419;72;21133;-80
2021/10/07 10:25:09;;;;;;;5.65;2.62;;;14.10;99.90;;;;;;1932924;72;21056;-79
2021/10/07 10:27:37;;;;;;;3.67;2.67;;;13.90;99.90;;;;;;1930031;72;21063;-80
2021/10/07 10:30:03;;;;;;;7.05;3.15;;;14.10;99.90;;;;;;1931598;73;21108;-80
2021/10/07 10:32:29;;;;;;;4.08;2.70;;;14.40;99.90;;;;;;1923158;72;21128;-79
2021/10/07 10:34:55;;;;;;;3.58;2.83;;;14.50;99.90;;;;;;1931739;72;21132;-80
2021/10/07 10:37:21;;;;;;;5.92;3.02;;;14.80;99.90;;;;;;1944771;72;21074;-81
2021/10/07 10:39:47;;;;;;;3.98;2.80;;;15.00;99.90;;;;;;1938082;72;21090;-81
2021/10/07 10:42:14;;;;;;;4.67;2.92;;;14.90;99.90;;;;;;1946279;72;21075;-80
2021/10/07 10:44:45;;;;;;;4.17;3.05;;;14.70;99.90;;;;;;1929957;72;21107;-80
2021/10/07 10:47:07;;;;;;;5.28;2.75;;;14.40;99.90;;;;;;1944535;72;21107;-79
2021/10/07 10:49:34;;;;;;;6.22;3.02;;;14.30;99.90;;;;;;1922482;72;21047;-81
2021/10/07 10:52:02;;;;;;;7.53;2.70;;;14.50;99.90;;;;;;1937891;71;21194;-81
2021/10/07 10:54:28;;;;;;;4.87;3.17;;;14.40;99.90;;;;;;1939294;72;21500;-79
2021/10/07 10:56:54;;;;;;;3.10;2.52;;;14.20;99.90;;;;;;1944609;73;21552;-80
2021/10/07 10:59:20;;;;;;;5.97;2.83;;;14.10;99.90;;;;;;1940492;72;21424;-81
2021/10/07 11:01:46;;;;;;;3.92;2.65;;;14.10;99.90;;;;;;1913345;73;21427;-80
2021/10/07 11:04:15;;;;;;;3.98;2.80;;;14.20;99.90;;;;;;1930834;73;21063;-81
2021/10/07 11:06:41;;;;;;;3.92;2.80;;;14.10;99.90;;;;;;1925605;72;21140;-80
2021/10/07 11:09:07;;;;;;;3.45;2.75;;;14.00;99.90;;;;;;1922614;72;21063;-81
2021/10/07 11:11:37;;;;;;;3.20;2.45;;;14.10;99.90;;;;;;1930042;73;21051;-82
2021/10/07 11:14:01;;;;;;;3.92;2.70;;;14.10;99.90;;;;;;1941284;72;21129;-81
2021/10/07 11:16:29;;;;;;;5.80;2.98;;;14.20;99.90;;;;;;1938188;73;21113;-81
2021/10/07 11:18:55;;;;;;;5.03;2.62;;;14.60;99.90;;;;;;1933027;72;21074;-81
2021/10/07 11:21:22;;;;;;;13.25;3.47;;;14.80;99.90;;;;;;1922846;72;21043;-81
2021/10/07 11:23:50;;;;;;;6.35;2.55;;;15.00;99.90;;;;;;1917984;72;21071;-82
2021/10/07 11:26:16;;;;;;;4.20;2.67;;;15.10;99.90;;;;;;1932397;72;21534;-83
2021/10/07 11:28:42;;;;;;;10.20;2.70;;;15.60;99.90;;;;;;1928489;72;21604;-83
2021/10/07 11:31:11;;;;;;;2.35;2.10;;;15.80;99.90;;;;;;1929258;72;21215;-81
2021/10/07 11:33:41;;;;;;;;;;;15.50;99.90;;;;;;1935070;71;21110;-82
2021/10/07 11:36:06;;;;;;;6.00;2.58;;;15.30;99.90;;;;;;1928757;72;20139;-79
2021/10/07 11:38:33;;;;;;;4.28;2.70;;;15.30;99.90;;;;;;1949972;72;21059;-79
2021/10/07 11:41:00;;;;;;;6.62;2.27;;;15.20;99.90;;;;;;1948496;72;21131;-78
2021/10/07 11:43:26;;;;;;;3.17;2.10;;;15.40;99.90;;;;;;1940399;72;21070;-79
2021/10/07 11:45:52;;;;;;;2.85;1.55;;;15.60;99.90;;;;;;1926751;72;21070;-79
2021/10/07 11:48:18;;;;;;;3.72;1.60;;;15.30;99.90;;;;;;1944976;72;21066;-79
2021/10/07 11:50:44;;;;;;;3.42;1.37;;;15.30;99.90;;;;;;1948833;72;21053;-79
2021/10/07 11:53:10;;;;;;;2.42;0.90;;;15.40;99.90;;;;;;1936503;72;21075;-80
2021/10/07 11:55:36;;;;;;;1.30;1.17;;;15.40;99.90;;;;;;1945037;72;21066;-79
2021/10/07 11:58:03;;;;;;;1.35;1.22;;;15.10;99.90;;;;;;1933801;73;21420;-80
2021/10/07 12:00:29;;;;;;;1.95;0.98;;;15.20;99.90;;;;;;1928623;72;21442;-79
2021/10/07 12:02:55;;;;;;;1.85;1.30;;;15.30;99.90;;;;;;1927747;72;21536;-80
2021/10/07 12:05:21;;;;;;;3.12;1.30;;;15.40;99.90;;;;;;1931219;72;21548;-79
2021/10/07 12:07:47;;;;;;;1.20;1.00;;;15.30;99.90;;;;;;1925213;73;21024;-80
2021/10/07 12:10:13;;;;;;;2.33;1.00;;;15.60;99.90;;;;;;1926655;72;21140;-79
2021/10/07 12:12:39;;;;;;;7.62;1.98;;;15.50;99.90;;;;;;1932538;73;21058;-78
2021/10/07 12:15:05;;;;;;;3.35;1.50;;;15.70;99.90;;;;;;1933704;72;21059;-79
2021/10/07 12:17:32;;;;;;;2.00;1.40;;;15.70;99.90;;;;;;1944823;72;21069;-77
2021/10/07 12:19:58;;;;;;;4.03;1.20;;;15.90;99.90;;;;;;1947362;71;21066;-79
2021/10/07 12:22:24;;;;;;;2.40;1.35;;;15.90;99.90;;;;;;1943249;72;21067;-79
2021/10/07 12:24:50;;;;;;;1.75;1.10;;;16.00;99.90;;;;;;1941141;72;21132;-79
2021/10/07 12:27:16;;;;;;;2.27;1.07;;;16.40;99.90;;;;;;1931235;72;21167;-79
2021/10/07 12:29:42;;;;;;;3.00;1.40;;;16.80;99.90;;;;;;1928308;72;21058;-80
2021/10/07 12:32:08;;;;;;;1.92;1.00;;;17.10;99.90;;;;;;1928797;73;21144;-78
2021/10/07 12:34:35;;;;;;;1.72;1.12;;;16.80;99.90;;;;;;1946833;72;21055;-79
2021/10/07 12:37:01;;;;;;;3.02;1.17;;;16.40;99.90;;;;;;1936514;72;21114;-80
2021/10/07 12:39:27;;;;;;;3.60;1.40;;;16.70;99.90;;;;;;1907500;72;21501;-81
2021/10/07 12:41:53;;;;;;;1.95;1.37;;;16.40;99.90;;;;;;1939233;72;21524;-84
2021/10/07 12:44:19;;;;;;;0.70;0.70;;;16.50;99.90;;;;;;1941718;72;21479;-81
2021/10/07 12:46:45;;;;;;;4.10;1.10;;;16.20;99.90;;;;;;1941994;71;21125;-79
2021/10/07 12:49:11;;;;;;;2.17;1.02;;;15.80;99.90;;;;;;1927683;73;21181;-82